createdAt,value
2023-04-03T00:00:35.350Z,3.90
2023-04-03T00:04:38.979Z,3.60
2023-04-03T00:08:42.649Z,3.40
2023-04-03T00:12:46.052Z,3.20
2023-04-03T00:16:50.738Z,3.10
2023-04-03T00:20:54.015Z,3.00
2023-04-03T00:24:57.394Z,2.80
2023-04-03T00:29:00.776Z,2.60
2023-04-03T00:33:05.879Z,2.50
2023-04-03T00:37:09.160Z,2.30
2023-04-03T00:41:12.678Z,2.30
2023-04-03T00:45:37.737Z,2.20
2023-04-03T00:49:43.548Z,2.10
2023-04-03T00:53:50.004Z,2.00
2023-04-03T00:57:55.006Z,1.90
2023-04-03T01:02:00.391Z,1.90
2023-04-03T01:06:06.260Z,1.80
2023-04-03T01:10:14.466Z,1.70
2023-04-03T01:14:17.859Z,1.60
2023-04-03T01:18:21.532Z,1.50
2023-04-03T01:22:31.051Z,1.60
2023-04-03T01:26:35.145Z,1.50
2023-04-03T01:30:45.566Z,1.40
2023-04-03T01:34:50.199Z,1.20
2023-04-03T01:38:53.951Z,1.20
2023-04-03T01:42:57.185Z,1.20
2023-04-03T01:47:00.766Z,1.20
2023-04-03T01:51:05.509Z,1.00
2023-04-03T01:55:09.537Z,1.00
2023-04-03T01:59:12.893Z,0.90
2023-04-03T02:03:16.382Z,0.80
2023-04-03T02:07:21.168Z,0.90
2023-04-03T02:11:25.017Z,0.80
2023-04-03T02:15:35.115Z,0.90
2023-04-03T02:19:38.389Z,1.00
2023-04-03T02:23:43.504Z,1.00
2023-04-03T02:27:46.735Z,0.90
2023-04-03T02:31:51.465Z,0.90
2023-04-03T02:35:56.435Z,0.90
2023-04-03T02:40:01.628Z,0.80
2023-04-03T02:44:06.536Z,0.80
2023-04-03T02:48:10.160Z,0.80
2023-04-03T02:52:14.618Z,0.70
2023-04-03T02:56:21.310Z,0.70
2023-04-03T03:00:24.832Z,0.80
2023-04-03T03:04:28.424Z,0.80
2023-04-03T03:08:32.062Z,0.90
2023-04-03T03:12:36.999Z,0.90
2023-04-03T03:16:40.658Z,1.00
2023-04-03T03:20:44.163Z,1.00
2023-04-03T03:24:47.814Z,1.20
2023-04-03T03:28:52.802Z,1.20
2023-04-03T03:32:56.501Z,1.30
2023-04-03T03:37:00.164Z,1.30
2023-04-03T03:41:03.761Z,1.20
2023-04-03T03:45:10.560Z,1.30
2023-04-03T03:49:14.363Z,1.50
2023-04-03T03:53:19.493Z,1.70
2023-04-03T03:57:23.008Z,1.90
2023-04-03T04:01:28.372Z,2.00
2023-04-03T04:05:32.024Z,2.20
2023-04-03T04:09:35.703Z,2.30
2023-04-03T04:13:39.449Z,2.40
2023-04-03T04:17:47.404Z,2.60
2023-04-03T04:21:51.011Z,2.80
2023-04-03T04:25:54.742Z,2.90
2023-04-03T04:29:59.340Z,3.00
2023-04-03T04:34:04.467Z,3.20
2023-04-03T04:38:09.839Z,3.40
2023-04-03T04:42:16.747Z,3.50
2023-04-03T04:46:21.652Z,3.80
2023-04-03T04:50:26.773Z,3.80
2023-04-03T04:54:30.424Z,3.80
2023-04-03T04:58:34.097Z,3.90
2023-04-03T05:02:37.739Z,4.10
2023-04-03T05:06:43.110Z,4.10
2023-04-03T05:10:48.709Z,4.10
2023-04-03T05:14:54.586Z,4.20
2023-04-03T05:18:58.277Z,4.20
2023-04-03T05:23:03.328Z,4.30
2023-04-03T05:27:07.033Z,4.50
2023-04-03T05:31:10.602Z,4.60
2023-04-03T05:35:14.567Z,4.70
2023-04-03T05:39:19.697Z,4.70
2023-04-03T05:43:23.182Z,4.80
2023-04-03T05:47:27.144Z,4.90
2023-04-03T05:51:34.339Z,5.00
2023-04-03T05:55:40.080Z,5.10
2023-04-03T05:59:43.684Z,5.40
2023-04-03T06:03:47.435Z,5.50
2023-04-03T06:07:51.184Z,5.50
2023-04-03T06:11:56.313Z,5.70
2023-04-03T06:15:59.866Z,5.90
2023-04-03T06:20:04.920Z,6.10
2023-04-03T06:24:09.797Z,6.30
2023-04-03T06:28:15.192Z,6.40
2023-04-03T06:32:19.133Z,6.40
2023-04-03T06:36:23.009Z,6.50
2023-04-03T06:40:28.447Z,6.50
2023-04-03T06:44:35.005Z,6.40
2023-04-03T06:48:38.746Z,6.30
2023-04-03T06:52:42.349Z,6.40
2023-04-03T06:56:45.997Z,6.70
2023-04-03T07:00:51.255Z,6.90
2023-04-03T07:04:54.871Z,7.20
2023-04-03T07:08:58.743Z,7.30
2023-04-03T07:13:02.922Z,7.50
2023-04-03T07:17:12.428Z,7.90
2023-04-03T07:21:16.406Z,8.10
2023-04-03T07:25:20.458Z,8.30
2023-04-03T07:29:24.334Z,8.40
2023-04-03T07:33:29.600Z,8.40
2023-04-03T07:37:33.586Z,8.60
2023-04-03T07:41:37.518Z,10.30
2023-04-03T07:45:41.304Z,9.90
2023-04-03T07:49:46.663Z,8.80
2023-04-03T07:53:50.913Z,8.40
2023-04-03T07:57:54.424Z,8.40
2023-04-03T08:01:58.091Z,8.20
2023-04-03T08:06:09.174Z,7.60
2023-04-03T08:10:15.678Z,7.80
2023-04-03T08:14:19.816Z,9.90
2023-04-03T08:18:25.636Z,9.40
2023-04-03T08:22:30.784Z,11.40
2023-04-03T08:26:34.542Z,11.40
2023-04-03T08:30:38.919Z,9.70
2023-04-03T08:34:43.154Z,9.50
2023-04-03T08:38:48.625Z,8.80
2023-04-03T08:43:07.237Z,8.80
2023-04-03T08:47:20.735Z,9.70
2023-04-03T08:51:28.521Z,12.10
2023-04-03T08:55:37.466Z,13.60
2023-04-03T08:59:43.008Z,11.20
2023-04-03T09:03:47.074Z,11.00
2023-04-03T09:07:57.204Z,11.50
2023-04-03T09:12:13.200Z,11.50
2023-04-03T09:16:28.335Z,14.70
2023-04-03T09:20:42.753Z,12.10
2023-04-03T09:24:49.342Z,10.50
2023-04-03T09:28:57.027Z,9.70
2023-04-03T09:33:01.336Z,9.30
2023-04-03T09:37:08.329Z,8.90
2023-04-03T09:41:25.444Z,8.70
2023-04-03T09:45:32.889Z,8.70
2023-04-03T09:49:36.457Z,8.20
2023-04-03T09:53:42.069Z,8.40
2023-04-03T09:57:46.361Z,9.00
2023-04-03T10:02:02.531Z,8.90
2023-04-03T10:06:08.669Z,8.80
2023-04-03T10:10:21.372Z,8.60
2023-04-03T10:14:25.093Z,8.40
2023-04-03T10:18:40.111Z,8.90
2023-04-03T10:22:56.334Z,11.60
2023-04-03T10:27:05.492Z,11.90
2023-04-03T10:31:17.734Z,11.60
2023-04-03T10:35:36.618Z,13.20
2023-04-03T10:39:49.172Z,14.40
2023-04-03T10:44:04.402Z,13.40
2023-04-03T10:48:11.698Z,14.30
2023-04-03T10:52:23.137Z,13.60
2023-04-03T10:56:34.625Z,12.70
2023-04-03T11:00:42.601Z,12.90
2023-04-03T11:04:50.305Z,12.20
2023-04-03T11:08:59.923Z,11.00
2023-04-03T11:13:13.615Z,9.90
2023-04-03T11:17:32.406Z,10.40
2023-04-03T11:21:41.543Z,9.60
2023-04-03T11:25:48.598Z,9.80
2023-04-03T11:29:54.331Z,9.30
2023-04-03T11:34:07.550Z,9.60
2023-04-03T11:38:27.690Z,11.10
2023-04-03T11:42:38.869Z,12.80
2023-04-03T11:46:57.056Z,13.70
2023-04-03T11:51:02.874Z,13.90
2023-04-03T11:55:56.580Z,16.00
2023-04-03T12:00:01.913Z,15.10
2023-04-03T12:04:16.972Z,14.70
2023-04-03T12:08:28.276Z,13.00
2023-04-03T12:12:35.647Z,14.30
2023-04-03T12:16:48.944Z,13.00
2023-04-03T12:21:00.407Z,12.60
2023-04-03T12:25:50.959Z,11.60
2023-04-03T12:30:00.444Z,11.50
2023-04-03T12:34:35.547Z,11.60
2023-04-03T12:39:01.070Z,9.80
2023-04-03T12:43:18.640Z,9.80
2023-04-03T12:47:30.374Z,10.60
2023-04-03T12:51:40.437Z,10.20
2023-04-03T12:55:43.999Z,9.80
2023-04-03T12:59:48.308Z,9.20
2023-04-03T13:03:54.906Z,10.50
2023-04-03T13:08:04.144Z,10.70
2023-04-03T13:12:15.772Z,10.10
2023-04-03T13:16:19.622Z,9.60
2023-04-03T13:20:26.959Z,9.60
2023-04-03T13:24:35.068Z,10.00
2023-04-03T13:28:39.415Z,12.20
2023-04-03T13:32:46.542Z,11.30
2023-04-03T13:36:59.457Z,12.20
2023-04-03T13:41:13.606Z,13.00
2023-04-03T13:45:25.014Z,12.00
2023-04-03T13:49:40.755Z,12.10
2023-04-03T13:53:47.061Z,11.60
2023-04-03T13:57:58.450Z,11.20
2023-04-03T14:02:21.525Z,10.20
2023-04-03T14:06:27.922Z,9.70
2023-04-03T14:10:32.066Z,10.20
2023-04-03T14:14:39.980Z,12.90
2023-04-03T14:18:43.953Z,14.80
2023-04-03T14:22:47.455Z,14.70
2023-04-03T14:26:51.937Z,12.20
2023-04-03T14:30:56.880Z,12.20
2023-04-03T14:35:00.737Z,12.30
2023-04-03T14:39:05.211Z,13.40
2023-04-03T14:43:12.165Z,15.20
2023-04-03T14:47:29.633Z,13.80
2023-04-03T14:51:34.743Z,13.50
2023-04-03T14:55:38.499Z,14.40
2023-04-03T14:59:42.237Z,12.90
2023-04-03T15:03:47.789Z,11.50
2023-04-03T15:07:55.875Z,11.40
2023-04-03T15:11:59.666Z,11.00
2023-04-03T15:16:03.277Z,10.20
2023-04-03T15:20:15.308Z,9.10
2023-04-03T15:24:18.851Z,8.90
2023-04-03T15:28:28.634Z,8.60
2023-04-03T15:32:32.609Z,8.20
2023-04-03T15:36:37.714Z,8.00
2023-04-03T15:40:41.635Z,7.80
2023-04-03T15:44:45.111Z,7.60
2023-04-03T15:48:50.453Z,7.50
2023-04-03T15:52:56.352Z,7.30
2023-04-03T15:57:00.359Z,7.00
2023-04-03T16:01:04.305Z,7.00
2023-04-03T16:05:09.075Z,6.90
2023-04-03T16:09:14.198Z,6.80
2023-04-03T16:13:17.896Z,6.80
2023-04-03T16:17:21.501Z,6.70
2023-04-03T16:21:25.706Z,6.50
2023-04-03T16:25:32.049Z,6.40
2023-04-03T16:29:37.394Z,6.20
2023-04-03T16:33:41.267Z,6.20
2023-04-03T16:37:44.834Z,6.00
2023-04-03T16:41:49.887Z,5.90
2023-04-03T16:45:53.625Z,5.80
2023-04-03T16:49:59.973Z,5.50
2023-04-03T16:54:03.893Z,5.40
2023-04-03T16:58:09.066Z,5.30
2023-04-03T17:02:13.554Z,5.20
2023-04-03T17:06:20.169Z,5.10
2023-04-03T17:10:23.935Z,4.90
2023-04-03T17:14:29.560Z,4.70
2023-04-03T17:18:33.553Z,4.50
2023-04-03T17:22:37.684Z,4.40
2023-04-03T17:26:42.612Z,4.20
2023-04-03T17:30:48.089Z,4.10
2023-04-03T17:34:53.517Z,4.00
2023-04-03T17:38:57.599Z,3.90
2023-04-03T17:43:01.511Z,3.80
2023-04-03T17:47:10.689Z,3.70
2023-04-03T17:51:16.346Z,3.70
2023-04-03T17:55:21.224Z,3.60
2023-04-03T17:59:46.726Z,3.60
2023-04-03T18:03:57.678Z,3.50
2023-04-03T18:08:04.092Z,3.40
2023-04-03T18:12:12.770Z,3.30
2023-04-03T18:16:22.314Z,3.30
2023-04-03T18:20:28.836Z,3.20
2023-04-03T18:24:36.190Z,3.20
2023-04-03T18:28:41.637Z,3.20
2023-04-03T18:32:47.757Z,3.10
2023-04-03T18:36:58.609Z,3.10
2023-04-03T18:41:08.240Z,3.00
2023-04-03T18:45:16.833Z,3.00
2023-04-03T18:49:24.312Z,3.00
2023-04-03T18:53:32.930Z,2.90
2023-04-03T18:57:39.546Z,2.80
2023-04-03T19:01:44.658Z,2.90
2023-04-03T19:05:49.759Z,2.80
2023-04-03T19:09:58.227Z,2.60
2023-04-03T19:14:15.294Z,2.70
2023-04-03T19:18:21.964Z,2.70
2023-04-03T19:22:26.538Z,2.70
2023-04-03T19:26:36.518Z,2.80
2023-04-03T19:30:41.967Z,2.70
2023-04-03T19:34:48.199Z,2.60
2023-04-03T19:38:53.356Z,2.60
2023-04-03T19:42:59.630Z,2.60
2023-04-03T19:47:06.034Z,2.60
2023-04-03T19:51:10.886Z,2.60
2023-04-03T19:55:15.727Z,2.60
2023-04-03T19:59:21.503Z,2.60
2023-04-03T20:03:27.001Z,2.50
2023-04-03T20:07:32.351Z,2.50
2023-04-03T20:11:39.350Z,2.60
2023-04-03T20:15:46.365Z,2.60
2023-04-03T20:19:51.185Z,2.40
2023-04-03T20:23:55.511Z,2.30
2023-04-03T20:28:00.047Z,2.20
2023-04-03T20:32:07.495Z,2.10
2023-04-03T20:36:11.235Z,2.00
2023-04-03T20:40:16.723Z,2.00
2023-04-03T20:44:22.206Z,2.00
2023-04-03T20:48:27.234Z,2.10
2023-04-03T20:52:31.025Z,2.10
2023-04-03T20:56:35.228Z,2.10
2023-04-03T21:00:39.126Z,2.10
2023-04-03T21:04:48.538Z,2.10
2023-04-03T21:09:29.144Z,2.00
2023-04-03T21:14:09.895Z,1.90
2023-04-03T21:18:37.063Z,1.80
2023-04-03T21:22:43.803Z,2.00
2023-04-03T21:26:47.843Z,2.10
2023-04-03T21:30:51.349Z,2.20
2023-04-03T21:34:56.455Z,2.30
2023-04-03T21:39:00.739Z,2.10
2023-04-03T21:43:05.245Z,2.10
2023-04-03T21:47:08.954Z,2.10
2023-04-03T21:51:13.852Z,2.00
2023-04-03T21:55:17.574Z,1.90
2023-04-03T21:59:21.391Z,1.70
2023-04-03T22:03:25.754Z,1.50
2023-04-03T22:07:30.739Z,1.50
2023-04-03T22:11:34.292Z,1.60
2023-04-03T22:15:42.945Z,1.50
2023-04-03T22:19:46.795Z,1.50
2023-04-03T22:23:52.747Z,1.40
2023-04-03T22:27:56.294Z,1.40
2023-04-03T22:31:59.895Z,1.50
2023-04-03T22:36:03.423Z,1.50
2023-04-03T22:40:09.769Z,1.40
2023-04-03T22:44:13.235Z,1.30
2023-04-03T22:48:17.594Z,1.20
2023-04-03T22:52:20.968Z,1.10
2023-04-03T22:56:27.879Z,1.10
2023-04-03T23:00:31.382Z,1.20
2023-04-03T23:04:34.761Z,1.10
2023-04-03T23:08:39.914Z,0.90
2023-04-03T23:12:44.626Z,0.80
2023-04-03T23:16:48.386Z,0.70
2023-04-03T23:20:55.174Z,0.60
2023-04-03T23:51:54.422Z,-0.10
2023-04-03T23:55:57.917Z,-0.30
